createdAt,value
2018-07-10T00:00:27.698Z,16.5
2018-07-10T00:01:29.366Z,16.4
2018-07-10T00:02:31.029Z,16.5
2018-07-10T00:03:32.690Z,16.4
2018-07-10T00:04:34.354Z,16.5
2018-07-10T00:05:36.026Z,16.4
2018-07-10T00:06:37.686Z,16.4
2018-07-10T00:07:39.351Z,16.4
2018-07-10T00:08:41.010Z,16.4
2018-07-10T00:09:42.682Z,16.4
2018-07-10T00:10:44.344Z,16.3
2018-07-10T00:11:46.016Z,16.2
2018-07-10T00:12:47.681Z,16.3
2018-07-10T00:13:49.338Z,16.3
2018-07-10T00:14:51.006Z,16.1
2018-07-10T00:15:52.663Z,16.2
2018-07-10T00:16:54.335Z,16.2
2018-07-10T00:17:55.992Z,16.2
2018-07-10T00:18:57.657Z,16.2
2018-07-10T00:19:59.324Z,16.3
2018-07-10T00:21:00.992Z,16.1
2018-07-10T00:22:02.683Z,16.2
2018-07-10T00:23:04.346Z,16.2
2018-07-10T00:24:06.007Z,16.2
2018-07-10T00:25:07.674Z,16.2
2018-07-10T00:26:09.340Z,16.1
2018-07-10T00:27:10.994Z,16.2
2018-07-10T00:28:12.679Z,16.0
2018-07-10T00:29:14.343Z,15.9
2018-07-10T00:30:16.007Z,15.9
2018-07-10T00:31:17.674Z,15.7
2018-07-10T00:32:19.345Z,15.7
2018-07-10T00:33:21.005Z,15.5
2018-07-10T00:34:22.667Z,15.5
2018-07-10T00:35:24.332Z,15.5
2018-07-10T00:36:25.994Z,15.5
2018-07-10T00:37:27.658Z,15.6
2018-07-10T00:38:29.332Z,15.4
2018-07-10T00:39:30.999Z,15.4
2018-07-10T00:40:32.671Z,15.4
2018-07-10T00:41:34.333Z,15.4
2018-07-10T00:42:35.999Z,15.3
2018-07-10T00:43:37.666Z,15.0
2018-07-10T00:44:39.327Z,15.0
2018-07-10T00:45:40.997Z,15.1
2018-07-10T00:46:42.652Z,14.9
2018-07-10T00:47:44.311Z,14.9
2018-07-10T00:48:45.977Z,14.7
2018-07-10T00:49:47.633Z,14.7
2018-07-10T00:50:49.304Z,14.5
2018-07-10T00:51:50.975Z,14.4
2018-07-10T00:52:52.631Z,14.5
2018-07-10T00:53:54.292Z,14.5
2018-07-10T00:54:55.976Z,14.3
2018-07-10T00:55:57.637Z,14.3
2018-07-10T00:56:59.309Z,14.2
2018-07-10T00:58:00.973Z,14.1
2018-07-10T00:59:02.637Z,14.1
2018-07-10T01:00:04.307Z,14.1
2018-07-10T01:01:05.976Z,14.0
2018-07-10T01:02:07.645Z,14.1
2018-07-10T01:03:09.321Z,14.0
2018-07-10T01:04:10.987Z,14.0
2018-07-10T01:05:12.654Z,13.9
2018-07-10T01:06:14.315Z,14.0
2018-07-10T01:07:15.985Z,13.8
2018-07-10T01:08:17.640Z,13.9
2018-07-10T01:09:19.304Z,13.9
2018-07-10T01:10:20.967Z,13.9
2018-07-10T01:11:22.638Z,13.7
2018-07-10T01:12:24.293Z,13.7
2018-07-10T01:13:25.959Z,13.7
2018-07-10T01:14:27.636Z,13.6
2018-07-10T01:15:29.290Z,13.5
2018-07-10T01:16:30.952Z,13.6
2018-07-10T01:17:32.616Z,13.6
2018-07-10T01:18:34.277Z,13.6
2018-07-10T01:19:35.940Z,13.5
2018-07-10T01:20:37.607Z,13.6
2018-07-10T01:21:39.265Z,13.6
2018-07-10T01:22:40.927Z,13.5
2018-07-10T01:23:42.596Z,13.5
2018-07-10T01:24:44.254Z,13.4
2018-07-10T01:25:45.923Z,13.4
2018-07-10T01:26:47.589Z,13.3
2018-07-10T01:27:49.252Z,13.3
2018-07-10T01:28:50.925Z,13.4
2018-07-10T01:29:52.591Z,13.3
2018-07-10T01:30:54.270Z,13.3
2018-07-10T01:31:55.930Z,13.2
2018-07-10T01:32:57.593Z,13.2
2018-07-10T01:33:59.248Z,13.3
2018-07-10T01:35:00.914Z,13.3
2018-07-10T01:36:02.582Z,13.3
2018-07-10T01:37:04.248Z,13.2
2018-07-10T01:38:05.913Z,13.1
2018-07-10T01:39:07.576Z,13.2
2018-07-10T01:40:09.241Z,13.2
2018-07-10T01:41:10.902Z,13.2
2018-07-10T01:42:12.573Z,13.2
2018-07-10T01:43:14.231Z,13.1
2018-07-10T01:44:15.894Z,13.2
2018-07-10T01:45:17.558Z,13.2
2018-07-10T01:46:19.218Z,13.2
2018-07-10T01:47:20.884Z,13.2
2018-07-10T01:48:22.546Z,13.2
2018-07-10T01:49:24.216Z,13.1
2018-07-10T01:50:25.886Z,13.0
2018-07-10T01:51:27.539Z,13.1
2018-07-10T01:52:29.201Z,13.1
2018-07-10T01:53:30.865Z,13.2
2018-07-10T01:54:32.534Z,13.2
2018-07-10T02:01:05.548Z,13.0
2018-07-10T02:02:07.203Z,13.0
2018-07-10T02:03:59.076Z,13.2
2018-07-10T02:05:00.738Z,13.2
2018-07-10T02:06:52.566Z,13.2
2018-07-10T02:07:54.234Z,13.2
2018-07-10T02:08:55.909Z,13.2
2018-07-10T02:09:57.562Z,13.1
2018-07-10T02:10:59.227Z,13.0
2018-07-10T02:12:00.950Z,13.1
2018-07-10T02:13:02.610Z,13.2
2018-07-10T02:14:04.306Z,13.3
2018-07-10T02:15:05.961Z,13.2
2018-07-10T02:16:07.612Z,13.3
2018-07-10T02:17:09.270Z,13.3
2018-07-10T02:18:10.936Z,13.3
2018-07-10T02:19:12.599Z,13.2
2018-07-10T02:20:14.269Z,13.3
2018-07-10T02:21:15.932Z,13.3
2018-07-10T02:22:17.595Z,13.3
2018-07-10T02:23:19.257Z,13.3
2018-07-10T02:24:20.916Z,13.2
2018-07-10T02:25:22.588Z,13.3
2018-07-10T02:26:24.252Z,13.3
2018-07-10T02:27:25.932Z,13.4
2018-07-10T02:28:27.594Z,13.3
2018-07-10T02:29:29.258Z,13.3
2018-07-10T02:30:30.920Z,13.3
2018-07-10T02:31:32.577Z,13.3
2018-07-10T02:32:34.244Z,13.3
2018-07-10T02:33:35.912Z,13.4
2018-07-10T02:34:37.574Z,13.2
2018-07-10T02:35:39.241Z,13.3
2018-07-10T02:36:40.909Z,13.3
2018-07-10T02:37:42.570Z,13.2
2018-07-10T02:38:44.267Z,13.2
2018-07-10T02:39:45.930Z,13.2
2018-07-10T02:40:47.593Z,13.1
2018-07-10T02:41:49.264Z,13.2
2018-07-10T02:42:50.924Z,13.2
2018-07-10T02:43:52.586Z,13.1
2018-07-10T02:44:54.256Z,13.2
2018-07-10T02:45:55.909Z,13.1
2018-07-10T02:46:57.575Z,13.1
2018-07-10T02:47:59.238Z,13.2
2018-07-10T02:49:00.893Z,13.2
2018-07-10T02:50:02.565Z,13.2
2018-07-10T02:51:04.223Z,13.1
2018-07-10T02:52:05.896Z,13.1
2018-07-10T02:53:07.565Z,13.2
2018-07-10T02:54:09.227Z,13.1
2018-07-10T02:55:10.885Z,13.0
2018-07-10T02:56:12.548Z,13.1
2018-07-10T02:57:14.211Z,13.0
2018-07-10T02:58:15.882Z,13.0
2018-07-10T02:59:17.551Z,13.1
2018-07-10T03:00:19.212Z,13.0
2018-07-10T03:01:20.875Z,13.0
2018-07-10T03:02:22.550Z,13.0
2018-07-10T03:03:24.209Z,13.0
2018-07-10T03:04:25.883Z,13.0
2018-07-10T03:05:27.544Z,13.0
2018-07-10T03:06:29.208Z,13.0
2018-07-10T03:07:30.875Z,13.0
2018-07-10T03:08:32.548Z,13.0
2018-07-10T03:09:34.210Z,12.9
2018-07-10T03:10:35.869Z,12.8
2018-07-10T03:11:59.862Z,13.0
2018-07-10T03:12:59.055Z,13.1
2018-07-10T03:14:00.715Z,12.9
2018-07-10T03:15:02.389Z,13.0
2018-07-10T03:16:04.053Z,13.1
2018-07-10T03:17:05.722Z,13.2
2018-07-10T03:18:07.387Z,13.1
2018-07-10T03:19:09.056Z,13.0
2018-07-10T03:20:10.716Z,13.0
2018-07-10T03:21:12.378Z,13.0
2018-07-10T03:22:14.053Z,13.0
2018-07-10T03:23:15.716Z,13.0
2018-07-10T03:24:17.379Z,13.0
2018-07-10T03:25:19.055Z,13.0
2018-07-10T03:26:20.721Z,13.0
2018-07-10T03:27:22.394Z,13.0
2018-07-10T03:28:24.056Z,13.0
2018-07-10T03:29:25.725Z,13.0
2018-07-10T03:30:27.392Z,12.8
2018-07-10T03:31:29.066Z,12.8
2018-07-10T03:32:30.726Z,12.8
2018-07-10T03:33:32.395Z,12.8
2018-07-10T03:34:34.060Z,12.8
2018-07-10T03:35:35.771Z,12.9
2018-07-10T03:36:37.402Z,12.8
2018-07-10T03:37:39.079Z,12.8
2018-07-10T03:38:40.742Z,12.8
2018-07-10T03:39:42.404Z,12.8
2018-07-10T03:40:44.085Z,12.8
2018-07-10T03:41:45.746Z,12.8
2018-07-10T03:42:47.428Z,12.8
2018-07-10T03:43:49.107Z,12.9
2018-07-10T03:44:50.833Z,12.9
2018-07-10T03:45:52.449Z,12.9
2018-07-10T03:46:54.124Z,12.9
2018-07-10T03:47:55.794Z,13.0
2018-07-10T03:48:57.453Z,12.9
2018-07-10T03:49:59.114Z,13.0
2018-07-10T03:51:00.793Z,12.9
2018-07-10T03:52:02.477Z,12.8
2018-07-10T03:53:04.144Z,12.8
2018-07-10T03:54:05.870Z,13.0
2018-07-10T03:55:07.583Z,12.8
2018-07-10T03:56:09.240Z,13.0
2018-07-10T03:57:10.911Z,13.1
2018-07-10T03:58:12.577Z,12.9
2018-07-10T03:59:14.234Z,12.9
2018-07-10T04:00:15.903Z,13.0
2018-07-10T04:01:17.578Z,13.0
2018-07-10T04:02:19.244Z,12.9
2018-07-10T04:03:20.909Z,12.9
2018-07-10T04:04:22.581Z,13.0
2018-07-10T04:05:24.246Z,13.0
2018-07-10T04:06:25.914Z,13.1
2018-07-10T04:07:27.590Z,13.0
2018-07-10T04:08:29.259Z,13.1
2018-07-10T04:09:30.931Z,13.0
2018-07-10T04:10:32.596Z,12.9
2018-07-10T04:11:34.254Z,12.9
2018-07-10T04:12:35.978Z,12.8
2018-07-10T04:13:37.595Z,12.6
2018-07-10T04:14:39.269Z,12.8
2018-07-10T04:15:40.937Z,12.6
2018-07-10T04:16:42.630Z,12.5
2018-07-10T04:17:44.284Z,12.5
2018-07-10T04:18:45.938Z,12.4
2018-07-10T04:19:47.609Z,12.5
2018-07-10T04:20:49.278Z,12.4
2018-07-10T04:21:50.949Z,12.2
2018-07-10T04:22:52.616Z,12.3
2018-07-10T04:23:54.284Z,12.2
2018-07-10T04:24:55.955Z,12.3
2018-07-10T04:25:57.615Z,12.2
2018-07-10T04:26:59.278Z,12.3
2018-07-10T04:28:00.937Z,12.2
2018-07-10T04:29:02.621Z,12.3
2018-07-10T04:30:04.290Z,12.3
2018-07-10T04:31:05.961Z,12.2
2018-07-10T04:32:07.624Z,12.3
2018-07-10T04:33:09.279Z,12.4
2018-07-10T04:34:10.946Z,12.2
2018-07-10T04:35:12.579Z,12.3
2018-07-10T04:36:14.244Z,12.3
2018-07-10T04:37:16.020Z,12.2
2018-07-10T04:38:17.677Z,12.2
2018-07-10T04:39:19.345Z,12.3
2018-07-10T04:40:21.019Z,12.3
2018-07-10T04:41:22.692Z,12.4
2018-07-10T04:42:24.366Z,12.5
2018-07-10T04:43:26.025Z,12.5
2018-07-10T04:44:28.367Z,12.6
2018-07-10T04:45:30.072Z,12.5
2018-07-10T04:46:32.484Z,12.6
2018-07-10T04:47:34.153Z,12.6
2018-07-10T04:48:35.827Z,12.5
2018-07-10T04:49:37.901Z,12.5
2018-07-10T04:50:39.573Z,12.5
2018-07-10T04:51:41.237Z,12.6
2018-07-10T04:52:42.923Z,12.6
2018-07-10T04:53:44.599Z,12.8
2018-07-10T04:54:46.255Z,12.8
2018-07-10T04:55:47.930Z,12.8
2018-07-10T04:56:49.596Z,12.8
2018-07-10T04:57:51.271Z,12.8
2018-07-10T04:58:52.939Z,12.7
2018-07-10T04:59:54.725Z,12.7
2018-07-10T05:00:56.394Z,12.7
2018-07-10T05:01:58.076Z,12.8
2018-07-10T05:02:59.741Z,12.8
2018-07-10T05:04:01.426Z,12.8
2018-07-10T05:05:03.102Z,12.7
2018-07-10T05:06:04.801Z,12.7
2018-07-10T05:07:06.478Z,12.8
2018-07-10T05:08:08.172Z,12.8
2018-07-10T05:09:09.826Z,12.8
2018-07-10T05:10:11.495Z,13.0
2018-07-10T05:11:13.180Z,13.0
2018-07-10T05:12:14.857Z,13.1
2018-07-10T05:13:16.529Z,13.0
2018-07-10T05:14:18.204Z,13.0
2018-07-10T05:15:19.881Z,13.1
2018-07-10T05:16:21.558Z,13.2
2018-07-10T05:17:23.243Z,13.3
2018-07-10T05:18:24.920Z,13.4
2018-07-10T05:19:26.588Z,13.6
2018-07-10T05:20:28.264Z,13.5
2018-07-10T05:21:29.929Z,13.6
2018-07-10T05:22:31.599Z,13.6
2018-07-10T05:23:33.262Z,13.6
2018-07-10T05:24:34.934Z,13.7
2018-07-10T05:25:36.601Z,13.7
2018-07-10T05:26:38.273Z,13.7
2018-07-10T05:27:39.990Z,13.8
2018-07-10T05:28:41.645Z,14.1
2018-07-10T05:29:43.288Z,14.1
2018-07-10T05:30:44.962Z,14.2
2018-07-10T05:31:46.634Z,14.2
2018-07-10T05:32:48.288Z,14.1
2018-07-10T05:33:49.963Z,14.1
2018-07-10T05:34:51.641Z,14.2
2018-07-10T05:35:53.311Z,14.3
2018-07-10T05:36:54.978Z,14.6
2018-07-10T05:37:56.650Z,14.7
2018-07-10T05:38:58.319Z,14.6
2018-07-10T05:39:59.989Z,14.4
2018-07-10T05:41:01.664Z,14.2
2018-07-10T05:42:03.333Z,14.3
2018-07-10T05:43:05.036Z,14.0
2018-07-10T05:44:06.712Z,13.8
2018-07-10T05:45:08.381Z,13.9
2018-07-10T05:46:10.060Z,13.7
2018-07-10T05:47:11.737Z,13.7
2018-07-10T05:48:13.412Z,13.7
2018-07-10T05:49:15.077Z,13.7
2018-07-10T05:50:17.247Z,13.7
2018-07-10T05:51:18.913Z,13.6
2018-07-10T05:52:20.591Z,13.5
2018-07-10T05:53:22.265Z,13.5
2018-07-10T05:54:23.933Z,13.5
2018-07-10T05:55:25.600Z,13.6
2018-07-10T06:01:54.073Z,13.4
2018-07-10T06:02:55.739Z,13.4
2018-07-10T06:04:47.532Z,13.4
2018-07-10T06:05:49.197Z,13.4
2018-07-10T06:06:50.871Z,13.3
2018-07-10T06:07:52.536Z,13.4
2018-07-10T06:08:54.214Z,13.4
2018-07-10T06:09:55.886Z,13.4
2018-07-10T06:10:57.554Z,13.4
2018-07-10T06:11:59.237Z,13.4
2018-07-10T06:13:00.904Z,13.5
2018-07-10T06:14:02.622Z,13.6
2018-07-10T06:15:04.246Z,13.8
2018-07-10T06:16:05.921Z,14.0
2018-07-10T06:17:07.582Z,14.0
2018-07-10T06:18:09.251Z,14.3
2018-07-10T06:19:10.929Z,14.4
2018-07-10T06:20:12.625Z,14.3
2018-07-10T06:21:14.344Z,14.1
2018-07-10T06:22:16.029Z,14.2
2018-07-10T06:23:17.682Z,14.4
2018-07-10T06:24:19.446Z,14.5
2018-07-10T06:25:21.111Z,14.5
2018-07-10T06:26:22.790Z,14.3
2018-07-10T06:27:24.462Z,14.7
2018-07-10T06:28:26.133Z,14.4
2018-07-10T06:29:27.794Z,14.7
2018-07-10T06:30:29.472Z,14.9
2018-07-10T06:31:31.142Z,15.1
2018-07-10T06:32:32.819Z,15.3
2018-07-10T06:33:34.492Z,15.3
2018-07-10T06:34:36.161Z,15.0
2018-07-10T06:35:37.836Z,15.1
2018-07-10T06:36:39.501Z,15.5
2018-07-10T06:37:41.181Z,15.4
2018-07-10T06:38:42.853Z,15.2
2018-07-10T06:39:44.569Z,15.1
2018-07-10T06:40:46.193Z,15.1
2018-07-10T06:41:47.861Z,14.9
2018-07-10T06:42:49.530Z,15.1
2018-07-10T06:43:51.209Z,15.1
2018-07-10T06:44:52.879Z,14.8
2018-07-10T06:45:54.560Z,15.4
2018-07-10T06:46:56.230Z,15.7
2018-07-10T06:47:57.909Z,16.5
2018-07-10T06:48:59.572Z,17.0
2018-07-10T06:50:01.239Z,17.6
2018-07-10T06:51:02.909Z,18.1
2018-07-10T06:52:04.579Z,18.3
2018-07-10T06:53:06.602Z,19.1
2018-07-10T06:54:07.928Z,18.8
2018-07-10T06:55:09.649Z,19.4
2018-07-10T06:56:11.322Z,20.5
2018-07-10T06:57:12.990Z,19.5
2018-07-10T06:58:14.655Z,19.2
2018-07-10T06:59:16.336Z,19.2
2018-07-10T07:00:18.016Z,18.9
2018-07-10T07:01:19.697Z,19.2
2018-07-10T07:02:21.373Z,19.3
2018-07-10T07:03:23.046Z,19.2
2018-07-10T07:04:24.710Z,18.6
2018-07-10T07:05:26.431Z,19.3
2018-07-10T07:06:28.073Z,18.8
2018-07-10T07:07:29.747Z,18.9
2018-07-10T07:08:31.425Z,19.3
2018-07-10T07:09:33.097Z,20.0
2018-07-10T07:10:34.784Z,21.2
2018-07-10T07:11:36.459Z,20.2
2018-07-10T07:12:38.121Z,20.6
2018-07-10T07:13:39.811Z,20.6
2018-07-10T07:14:41.520Z,19.9
2018-07-10T07:15:43.252Z,19.3
2018-07-10T07:16:44.871Z,18.4
2018-07-10T07:17:46.551Z,18.2
2018-07-10T07:18:48.227Z,17.3
2018-07-10T07:19:49.901Z,17.1
2018-07-10T07:20:51.581Z,17.7
2018-07-10T07:21:53.267Z,17.6
2018-07-10T07:22:54.943Z,17.9
2018-07-10T07:23:56.624Z,17.8
2018-07-10T07:24:58.291Z,17.6
2018-07-10T07:25:59.968Z,18.0
2018-07-10T07:27:01.641Z,17.7
2018-07-10T07:28:03.318Z,18.3
2018-07-10T07:29:05.024Z,19.5
2018-07-10T07:30:06.705Z,20.9
2018-07-10T07:31:08.384Z,21.6
2018-07-10T07:32:10.058Z,21.7
2018-07-10T07:33:12.291Z,20.0
2018-07-10T07:34:13.974Z,21.4
2018-07-10T07:35:15.657Z,21.9
2018-07-10T07:36:17.341Z,23.8
2018-07-10T07:37:19.018Z,25.1
2018-07-10T07:38:20.691Z,26.0
2018-07-10T07:39:22.378Z,25.2
2018-07-10T07:40:24.056Z,23.8
2018-07-10T07:41:25.737Z,23.6
2018-07-10T07:42:27.416Z,23.2
2018-07-10T07:43:29.093Z,22.4
2018-07-10T07:44:30.778Z,22.6
2018-07-10T07:45:32.451Z,21.8
2018-07-10T07:46:34.132Z,21.4
2018-07-10T07:47:35.805Z,19.9
2018-07-10T07:48:37.478Z,20.0
2018-07-10T07:49:39.158Z,19.1
2018-07-10T07:50:40.846Z,18.7
2018-07-10T07:51:42.557Z,18.5
2018-07-10T07:52:44.238Z,17.4
2018-07-10T07:53:45.918Z,17.3
2018-07-10T07:54:47.597Z,17.4
2018-07-10T07:55:49.277Z,17.2
2018-07-10T07:56:50.954Z,17.7
2018-07-10T07:57:52.633Z,18.3
2018-07-10T07:58:54.322Z,19.7
2018-07-10T07:59:56.007Z,18.8
2018-07-10T08:00:57.686Z,19.7
2018-07-10T08:01:59.393Z,20.3
2018-07-10T08:03:01.063Z,21.1
2018-07-10T08:04:02.743Z,22.4
2018-07-10T08:05:04.415Z,23.2
2018-07-10T08:06:06.104Z,23.9
2018-07-10T08:07:07.790Z,22.4
2018-07-10T08:08:09.463Z,22.1
2018-07-10T08:09:11.136Z,22.3
2018-07-10T08:10:12.825Z,22.1
2018-07-10T08:11:14.505Z,23.6
2018-07-10T08:12:16.197Z,25.3
2018-07-10T08:13:17.882Z,24.8
2018-07-10T08:14:19.561Z,24.3
2018-07-10T08:15:21.243Z,24.0
2018-07-10T08:16:22.927Z,22.1
2018-07-10T08:17:24.600Z,22.9
2018-07-10T08:18:26.283Z,24.6
2018-07-10T08:19:27.962Z,25.6
2018-07-10T08:20:29.642Z,25.8
2018-07-10T08:21:31.344Z,26.0
2018-07-10T08:22:33.037Z,26.0
2018-07-10T08:23:34.722Z,25.4
2018-07-10T08:24:36.432Z,23.3
2018-07-10T08:25:38.101Z,23.9
2018-07-10T08:26:39.786Z,24.4
2018-07-10T08:27:41.467Z,24.4
2018-07-10T08:28:43.160Z,24.3
2018-07-10T08:29:44.857Z,22.9
2018-07-10T08:30:46.555Z,22.4
2018-07-10T08:31:48.245Z,22.1
2018-07-10T08:32:49.933Z,22.4
2018-07-10T08:33:51.688Z,22.1
2018-07-10T08:34:53.309Z,21.3
2018-07-10T08:35:54.991Z,20.4
2018-07-10T08:36:56.678Z,20.2
2018-07-10T08:37:58.353Z,19.9
2018-07-10T08:39:00.051Z,18.7
2018-07-10T08:40:01.725Z,18.0
2018-07-10T08:41:03.403Z,18.0
2018-07-10T08:42:05.106Z,18.1
2018-07-10T08:43:06.857Z,17.8
2018-07-10T08:44:08.423Z,18.0
2018-07-10T08:45:10.112Z,18.0
2018-07-10T08:46:11.786Z,18.0
2018-07-10T08:47:13.469Z,18.8
2018-07-10T08:48:15.147Z,19.0
2018-07-10T08:49:16.821Z,18.6
2018-07-10T08:50:18.509Z,19.2
2018-07-10T08:51:20.195Z,19.4
2018-07-10T08:52:21.871Z,19.5
2018-07-10T08:53:23.546Z,19.5
2018-07-10T08:54:25.250Z,18.8
2018-07-10T08:55:26.925Z,18.7
2018-07-10T08:56:28.608Z,18.9
2018-07-10T08:57:30.302Z,19.0
2018-07-10T08:58:31.976Z,19.7
2018-07-10T08:59:33.649Z,19.7
2018-07-10T09:00:35.322Z,18.6
2018-07-10T09:01:37.003Z,18.4
2018-07-10T09:02:38.680Z,18.4
2018-07-10T09:03:40.362Z,18.9
2018-07-10T09:04:42.040Z,18.7
2018-07-10T09:05:43.720Z,18.7
2018-07-10T09:06:45.406Z,19.0
2018-07-10T09:07:47.084Z,18.3
2018-07-10T09:08:48.753Z,18.4
2018-07-10T09:09:50.443Z,18.8
2018-07-10T09:10:52.115Z,19.2
2018-07-10T09:11:53.795Z,19.4
2018-07-10T09:12:55.464Z,19.0
2018-07-10T09:13:57.185Z,18.6
2018-07-10T09:14:58.823Z,19.6
2018-07-10T09:16:00.497Z,20.0
2018-07-10T09:17:02.170Z,20.2
2018-07-10T09:18:03.861Z,20.3
2018-07-10T09:19:05.590Z,20.1
2018-07-10T09:20:07.272Z,20.1
2018-07-10T09:21:08.957Z,19.8
2018-07-10T09:22:10.630Z,19.6
2018-07-10T09:23:12.352Z,19.4
2018-07-10T09:24:13.979Z,18.9
2018-07-10T09:25:15.651Z,18.8
2018-07-10T09:26:17.338Z,19.2
2018-07-10T09:27:19.029Z,19.3
2018-07-10T09:28:20.701Z,19.5
2018-07-10T09:29:22.479Z,19.6
2018-07-10T09:30:24.163Z,18.8
2018-07-10T09:31:25.848Z,18.8
2018-07-10T09:32:27.521Z,18.8
2018-07-10T09:33:29.276Z,18.9
2018-07-10T09:34:30.840Z,18.8
2018-07-10T09:35:32.510Z,18.4
2018-07-10T09:36:34.183Z,18.3
2018-07-10T09:37:35.864Z,18.4
2018-07-10T09:38:37.539Z,18.7
2018-07-10T09:39:39.235Z,18.6
2018-07-10T09:40:40.902Z,19.0
2018-07-10T09:41:42.576Z,18.8
2018-07-10T09:42:44.244Z,18.6
2018-07-10T09:43:45.917Z,18.4
2018-07-10T09:44:47.596Z,19.0
2018-07-10T09:45:49.271Z,19.1
2018-07-10T09:46:50.952Z,19.1
2018-07-10T09:47:52.623Z,19.2
2018-07-10T09:48:54.302Z,19.0
2018-07-10T09:49:55.974Z,19.3
2018-07-10T09:50:57.673Z,19.2
2018-07-10T09:51:59.358Z,19.1
2018-07-10T09:53:01.040Z,18.6
2018-07-10T09:54:02.716Z,19.2
2018-07-10T09:55:04.455Z,19.5
2018-07-10T10:01:30.331Z,19.7
2018-07-10T10:02:32.007Z,19.3
2018-07-10T10:04:23.898Z,19.3
2018-07-10T10:05:25.570Z,19.2
2018-07-10T10:06:27.252Z,19.2
2018-07-10T10:07:28.927Z,18.6
2018-07-10T10:08:30.682Z,18.7
2018-07-10T10:09:32.285Z,18.4
2018-07-10T10:10:33.964Z,17.8
2018-07-10T10:11:35.641Z,18.0
2018-07-10T10:12:37.315Z,18.6
2018-07-10T10:13:38.988Z,18.9
2018-07-10T10:14:40.662Z,18.9
2018-07-10T10:15:42.346Z,19.0
2018-07-10T10:16:44.051Z,19.2
2018-07-10T10:17:45.730Z,19.2
2018-07-10T10:18:47.400Z,19.2
2018-07-10T10:19:49.088Z,19.2
2018-07-10T10:20:50.762Z,19.2
2018-07-10T10:21:52.437Z,19.6
2018-07-10T10:22:54.117Z,19.8
2018-07-10T10:23:55.788Z,20.0
2018-07-10T10:24:57.481Z,20.3
2018-07-10T10:25:59.163Z,19.8
2018-07-10T10:27:00.831Z,20.5
2018-07-10T10:28:02.519Z,20.5
2018-07-10T10:29:04.182Z,20.6
2018-07-10T10:30:05.864Z,20.7
2018-07-10T10:31:07.554Z,20.6
2018-07-10T10:32:09.234Z,20.8
2018-07-10T10:33:10.916Z,20.6
2018-07-10T10:34:12.597Z,20.2
2018-07-10T10:35:14.280Z,20.3
2018-07-10T10:36:15.956Z,20.5
2018-07-10T10:37:17.643Z,20.3
2018-07-10T10:38:19.333Z,20.0
2018-07-10T10:39:21.013Z,20.0
2018-07-10T10:40:22.702Z,19.7
2018-07-10T10:41:24.431Z,19.3
2018-07-10T10:42:26.052Z,19.2
2018-07-10T10:43:27.737Z,18.9
2018-07-10T10:44:29.502Z,19.1
2018-07-10T10:45:31.190Z,18.8
2018-07-10T10:46:32.861Z,19.1
2018-07-10T10:47:34.541Z,19.1
2018-07-10T10:48:36.224Z,19.2
2018-07-10T10:49:37.964Z,19.7
2018-07-10T10:50:39.640Z,20.0
2018-07-10T10:51:41.312Z,19.7
2018-07-10T10:52:42.990Z,20.1
2018-07-10T10:53:45.185Z,19.9
2018-07-10T10:54:46.853Z,19.9
2018-07-10T10:55:48.542Z,20.0
2018-07-10T10:56:50.212Z,19.5
2018-07-10T10:57:51.894Z,19.3
2018-07-10T10:58:53.586Z,19.9
2018-07-10T10:59:55.260Z,19.9
2018-07-10T11:00:56.944Z,19.5
2018-07-10T11:01:58.635Z,19.4
2018-07-10T11:03:00.333Z,18.9
2018-07-10T11:04:02.056Z,19.1
2018-07-10T11:05:03.759Z,18.6
2018-07-10T11:06:05.474Z,18.0
2018-07-10T11:07:07.452Z,17.9
2018-07-10T11:08:09.136Z,17.6
2018-07-10T11:09:10.818Z,17.3
2018-07-10T11:10:12.530Z,16.9
2018-07-10T11:11:14.204Z,16.6
2018-07-10T11:12:15.875Z,16.2
2018-07-10T11:13:17.567Z,16.1
2018-07-10T11:14:19.255Z,15.7
2018-07-10T11:15:20.929Z,15.4
2018-07-10T11:16:22.605Z,15.4
2018-07-10T11:17:24.272Z,15.3
2018-07-10T11:18:25.957Z,15.3
2018-07-10T11:19:27.634Z,15.4
2018-07-10T11:20:29.315Z,15.5
2018-07-10T11:21:31.000Z,15.4
2018-07-10T11:22:32.670Z,15.6
2018-07-10T11:23:34.344Z,15.6
2018-07-10T11:24:36.012Z,15.6
2018-07-10T11:25:37.688Z,15.5
2018-07-10T11:26:39.346Z,15.4
2018-07-10T11:27:41.024Z,15.4
2018-07-10T11:28:43.445Z,15.4
2018-07-10T11:29:45.119Z,15.4
2018-07-10T11:30:46.797Z,15.5
2018-07-10T11:31:48.473Z,15.5
2018-07-10T11:32:50.919Z,15.9
2018-07-10T11:33:52.589Z,16.2
2018-07-10T11:34:54.275Z,15.9
2018-07-10T11:35:55.955Z,16.2
2018-07-10T11:36:57.624Z,15.8
2018-07-10T11:38:00.992Z,16.4
2018-07-10T11:39:02.693Z,16.3
2018-07-10T11:40:04.347Z,16.4
2018-07-10T11:41:06.026Z,16.4
2018-07-10T11:42:07.703Z,16.7
2018-07-10T11:43:09.372Z,16.7
2018-07-10T11:44:11.043Z,17.0
2018-07-10T11:45:12.725Z,17.3
2018-07-10T11:46:14.402Z,17.1
2018-07-10T11:47:16.078Z,17.2
2018-07-10T11:48:17.752Z,16.7
2018-07-10T11:49:19.427Z,16.9
2018-07-10T11:50:21.109Z,16.7
2018-07-10T11:51:22.792Z,16.4
2018-07-10T11:52:24.450Z,16.4
2018-07-10T11:53:26.127Z,16.1
2018-07-10T11:54:27.797Z,16.2
2018-07-10T11:55:29.462Z,15.9
2018-07-10T11:56:31.128Z,16.2
2018-07-10T11:57:32.808Z,16.4
2018-07-10T11:58:34.493Z,16.3
2018-07-10T11:59:36.193Z,16.2
2018-07-10T12:00:37.871Z,16.2
2018-07-10T12:01:39.556Z,16.5
2018-07-10T12:02:41.228Z,16.7
2018-07-10T12:03:42.927Z,16.7
2018-07-10T12:04:44.600Z,16.6
2018-07-10T12:05:46.272Z,16.8
2018-07-10T12:06:47.947Z,16.8
2018-07-10T12:07:49.628Z,16.9
2018-07-10T12:08:51.303Z,16.3
2018-07-10T12:09:52.974Z,16.3
2018-07-10T12:10:54.667Z,16.4
2018-07-10T12:11:56.362Z,16.4
2018-07-10T12:12:58.019Z,16.1
2018-07-10T12:13:59.688Z,15.8
2018-07-10T12:15:01.360Z,15.7
2018-07-10T12:16:03.026Z,15.7
2018-07-10T12:17:04.704Z,15.6
2018-07-10T12:18:06.382Z,15.7
2018-07-10T12:19:08.057Z,15.7
2018-07-10T12:20:10.366Z,15.7
2018-07-10T12:21:12.039Z,15.9
2018-07-10T12:22:13.724Z,15.8
2018-07-10T12:23:15.391Z,16.1
2018-07-10T12:24:17.065Z,16.0
2018-07-10T12:25:18.748Z,15.9
2018-07-10T12:26:20.419Z,15.8
2018-07-10T12:27:22.096Z,15.9
2018-07-10T12:28:23.781Z,16.1
2018-07-10T12:29:25.458Z,16.2
2018-07-10T12:30:27.116Z,15.8
2018-07-10T12:31:28.795Z,15.7
2018-07-10T12:32:30.470Z,15.6
2018-07-10T12:33:32.160Z,15.4
2018-07-10T12:34:33.844Z,15.6
2018-07-10T12:35:35.532Z,15.6
2018-07-10T12:36:37.202Z,15.4
2018-07-10T12:37:38.874Z,15.3
2018-07-10T12:38:40.566Z,15.1
2018-07-10T12:39:42.273Z,15.3
2018-07-10T12:40:43.957Z,15.4
2018-07-10T12:41:45.718Z,15.4
2018-07-10T12:42:47.398Z,15.5
2018-07-10T12:43:49.072Z,15.4
2018-07-10T12:44:50.766Z,15.5
2018-07-10T12:45:52.437Z,15.6
2018-07-10T12:46:54.119Z,15.8
2018-07-10T12:47:55.789Z,16.0
2018-07-10T12:48:57.460Z,16.0
2018-07-10T12:49:59.145Z,16.0
2018-07-10T12:51:00.810Z,16.0
2018-07-10T12:52:02.479Z,16.2
2018-07-10T12:53:04.158Z,16.3
2018-07-10T12:54:05.850Z,16.3
2018-07-10T12:55:07.529Z,16.5
2018-07-10T12:56:09.204Z,16.5
2018-07-10T12:57:10.907Z,16.3
2018-07-10T12:58:12.595Z,16.4
2018-07-10T12:59:14.261Z,16.3
2018-07-10T13:00:15.926Z,16.5
2018-07-10T13:01:17.596Z,16.5
2018-07-10T13:02:19.284Z,16.3
2018-07-10T13:03:20.958Z,16.3
2018-07-10T13:04:22.637Z,16.2
2018-07-10T13:05:24.316Z,16.2
2018-07-10T13:06:25.995Z,16.1
2018-07-10T13:07:27.665Z,16.0
2018-07-10T13:08:29.345Z,15.9
2018-07-10T13:09:31.032Z,16.0
2018-07-10T13:10:32.702Z,16.2
2018-07-10T13:11:34.383Z,15.9
2018-07-10T13:12:36.070Z,15.9
2018-07-10T13:13:37.743Z,15.6
2018-07-10T13:14:39.416Z,15.4
2018-07-10T13:15:41.089Z,15.1
2018-07-10T13:16:42.762Z,15.1
2018-07-10T13:17:44.436Z,15.0
2018-07-10T13:18:46.112Z,14.8
2018-07-10T13:19:47.781Z,14.6
2018-07-10T13:20:49.449Z,14.5
2018-07-10T13:21:51.129Z,14.5
2018-07-10T13:22:52.791Z,14.5
2018-07-10T13:23:54.460Z,14.5
2018-07-10T13:24:56.134Z,14.5
2018-07-10T13:25:57.809Z,14.4
2018-07-10T13:26:59.495Z,14.5
2018-07-10T13:28:01.168Z,14.5
2018-07-10T13:29:02.839Z,14.5
2018-07-10T13:30:04.569Z,14.5
2018-07-10T13:31:06.238Z,14.6
2018-07-10T13:32:07.912Z,14.5
2018-07-10T13:33:09.590Z,14.7
2018-07-10T13:34:11.257Z,14.8
2018-07-10T13:35:12.945Z,15.0
2018-07-10T13:36:14.611Z,15.1
2018-07-10T13:37:16.284Z,15.3
2018-07-10T13:38:17.949Z,15.3
2018-07-10T13:39:19.617Z,15.4
2018-07-10T13:40:21.300Z,15.6
2018-07-10T13:41:22.966Z,15.6
2018-07-10T13:42:24.640Z,15.5
2018-07-10T13:43:26.316Z,15.5
2018-07-10T13:44:27.990Z,15.4
2018-07-10T13:45:29.673Z,15.4
2018-07-10T13:46:31.340Z,15.5
2018-07-10T13:47:33.023Z,15.5
2018-07-10T13:48:34.696Z,15.6
2018-07-10T13:49:36.376Z,15.8
2018-07-10T13:50:38.047Z,15.8
2018-07-10T13:51:39.721Z,16.0
2018-07-10T13:52:41.402Z,15.8
2018-07-10T13:53:43.083Z,15.8
2018-07-10T13:54:44.758Z,15.9
2018-07-10T14:01:02.494Z,16.2
2018-07-10T14:02:04.170Z,16.1
2018-07-10T14:03:55.976Z,15.7
2018-07-10T14:04:57.654Z,15.5
2018-07-10T14:06:49.463Z,15.2
2018-07-10T14:07:51.137Z,15.1